Time;durP1;ratioP1;P1;durP2;ratioP2;P2;SDS_P1;SDS_P2;PMS_P1;PMS_P2;Temp;Humidity;BMP_temperature;BMP_pressure;BME280_temperature;BME280_humidity;BME280_pressure;Samples;Min_cycle;Max_cycle;Signal;HPM_P1;HPM_P2
2023/10/09 00:01:54;;;;;;;;;;;;;;;;;;2079344;28;19917;-81
2023/10/09 00:03:13;;;;;;;;;;;;;;;;;;2081028;28;19909;-81
2023/10/09 00:04:35;;;;;;;;;;;;;;;;;;2081338;28;19916;-80
2023/10/09 00:05:55;;;;;;;;;;;;;;;;;;2072366;28;19913;-80
2023/10/09 00:07:16;;;;;;;;;;;;;;;;;;2071121;28;19914;-80
2023/10/09 00:08:37;;;;;;;;;;;;;;;;;;2076747;28;21505;-80
2023/10/09 00:09:56;;;;;;;;;;;;;;;;;;2073054;28;20354;-80
2023/10/09 00:11:18;;;;;;;;;;;;;;;;;;2071696;28;19988;-81
2023/10/09 00:12:36;;;;;;;;;;;;;;;;;;2071573;28;19996;-81
2023/10/09 00:13:58;;;;;;;;;;;;;;;;;;2073202;28;19959;-81
2023/10/09 00:15:18;;;;;;;;;;;;;;;;;;2079427;28;19952;-81
2023/10/09 00:16:43;;;;;;;;;;;;;;;;;;2073215;28;20371;-81
2023/10/09 00:18:04;;;;;;;;;;;;;;;;;;2071124;28;19990;-81
2023/10/09 00:19:32;;;;;;;;;;;;;;;;;;2069599;28;19905;-82
2023/10/09 00:20:54;;;;;;;;;;;;;;;;;;2064213;28;19937;-81
2023/10/09 00:22:26;;;;;;;;;;;;;;;;;;2062476;28;20319;-81
2023/10/09 00:23:45;;;;;;;;;;;;;;;;;;2064259;28;20355;-81
2023/10/09 00:25:10;;;;;;;;;;;;;;;;;;2064420;28;19910;-81
2023/10/09 00:26:30;;;;;;;;;;;;;;;;;;2068861;28;20266;-81
2023/10/09 00:27:49;;;;;;;;;;;;;;;;;;2067367;28;19909;-81
2023/10/09 00:29:14;;;;;;;;;;;;;;;;;;2063291;28;20395;-81
2023/10/09 00:30:35;;;;;;;;;;;;;;;;;;2069586;28;20366;-81
2023/10/09 00:32:13;;;;;;;;;;;;;;;;;;2063547;28;19914;-80
2023/10/09 00:33:32;;;;;;;;;;;;;;;;;;2071362;28;20266;-80
2023/10/09 00:34:51;;;;;;;;;;;;;;;;;;2063981;28;19910;-81
2023/10/09 00:36:10;;;;;;;;;;;;;;;;;;2068060;28;20008;-80
2023/10/09 00:37:33;;;;;;;;;;;;;;;;;;2063026;28;19969;-80
2023/10/09 00:38:52;;;;;;;;;;;;;;;;;;2067088;28;19917;-81
2023/10/09 00:40:23;;;;;;;;;;;;;;;;;;2063427;28;19910;-80
2023/10/09 00:41:42;;;;;;;;;;;;;;;;;;2063468;28;19906;-81
2023/10/09 00:43:06;;;;;;;;;;;;;;;;;;2063566;28;19913;-81
2023/10/09 00:44:37;;;;;;;;;;;;;;;;;;2063311;28;19945;-80
2023/10/09 00:45:56;;;;;;;;;;;;;;;;;;2065039;28;19909;-80
2023/10/09 00:47:21;;;;;;;;;;;;;;;;;;2062768;28;19958;-80
2023/10/09 00:48:40;;;;;;;;;;;;;;;;;;2068267;28;19905;-81
2023/10/09 00:49:59;;;;;;;;;;;;;;;;;;2065718;28;19910;-82
2023/10/09 00:51:18;;;;;;;;;;;;;;;;;;2064222;28;19910;-82
2023/10/09 00:52:39;;;;;;;;;;;;;;;;;;2062467;28;19906;-82
2023/10/09 00:54:08;;;;;;;;;;;;;;;;;;2066789;28;19905;-81
2023/10/09 00:55:45;;;;;;;;;;;;;;;;;;2062816;28;19909;-81
2023/10/09 00:57:07;;;;;;;;;;;;;;;;;;2063558;28;19906;-82
2023/10/09 00:58:30;;;;;;;;;;;;;;;;;;2063783;28;20460;-81
2023/10/09 00:59:59;;;;;;;;;;;;;;;;;;2068492;28;19913;-81
2023/10/09 01:01:17;;;;;;;;;;;;;;;;;;2063262;28;19906;-81
2023/10/09 01:02:36;;;;;;;;;;;;;;;;;;2062680;28;19957;-82
2023/10/09 01:03:56;;;;;;;;;;;;;;;;;;2063392;28;19969;-81
2023/10/09 01:05:26;;;;;;;;;;;;;;;;;;2064317;28;19913;-81
2023/10/09 01:06:45;;;;;;;;;;;;;;;;;;2063730;28;19964;-81
2023/10/09 01:08:16;;;;;;;;;;;;;;;;;;2067098;28;19909;-81
2023/10/09 01:09:38;;;;;;;;;;;;;;;;;;2063304;28;20430;-81
2023/10/09 01:10:58;;;;;;;;;;;;;;;;;;2068222;28;19913;-80
2023/10/09 01:12:16;;;;;;;;;;;;;;;;;;2054961;28;20375;-81
2023/10/09 01:13:52;;;;;;;;;;;;;;;;;;2068102;28;19968;-81
2023/10/09 01:15:35;;;;;;;;;;;;;;;;;;2070359;28;19921;-81
2023/10/09 01:16:53;;;;;;;;;;;;;;;;;;2064379;28;19906;-81
2023/10/09 01:18:13;;;;;;;;;;;;;;;;;;2061652;28;19913;-81
2023/10/09 01:19:33;;;;;;;;;;;;;;;;;;2068869;28;19948;-81
2023/10/09 01:20:52;;;;;;;;;;;;;;;;;;2067939;28;19924;-80
2023/10/09 01:22:16;;;;;;;;;;;;;;;;;;2067092;28;20359;-81
2023/10/09 01:23:42;;;;;;;;;;;;;;;;;;2071491;28;19909;-81
2023/10/09 01:25:05;;;;;;;;;;;;;;;;;;2066597;28;19952;-80
2023/10/09 01:26:24;;;;;;;;;;;;;;;;;;2063833;28;19910;-80
2023/10/09 01:27:43;;;;;;;;;;;;;;;;;;2064381;28;19914;-81
2023/10/09 01:29:03;;;;;;;;;;;;;;;;;;2070863;28;20609;-81
2023/10/09 01:30:23;;;;;;;;;;;;;;;;;;2068291;28;20278;-80
2023/10/09 01:33:36;;;;;;;;;;;;;;;;;;2050536;28;20643;-80
2023/10/09 01:34:57;;;;;;;;;;;;;;;;;;2049531;28;19909;-81
2023/10/09 01:36:16;;;;;;;;;;;;;;;;;;2063505;28;19905;-81
2023/10/09 01:37:37;;;;;;;;;;;;;;;;;;2071849;28;19953;-80
2023/10/09 01:38:56;;;;;;;;;;;;;;;;;;2062914;28;20347;-81
2023/10/09 01:40:37;;;;;;;;;;;;;;;;;;2069256;28;19913;-81
2023/10/09 01:41:58;;;;;;;;;;;;;;;;;;2064161;28;20308;-81
2023/10/09 01:43:19;;;;;;;;;;;;;;;;;;2063548;28;19909;-81
2023/10/09 01:44:42;;;;;;;;;;;;;;;;;;2071078;28;19995;-81
2023/10/09 01:46:01;;;;;;;;;;;;;;;;;;2063947;28;19909;-80
2023/10/09 01:47:21;;;;;;;;;;;;;;;;;;2068584;28;19906;-81
2023/10/09 01:48:46;;;;;;;;;;;;;;;;;;2067775;28;19910;-81
2023/10/09 01:50:17;;;;;;;;;;;;;;;;;;2071973;28;19936;-80
2023/10/09 01:51:38;;;;;;;;;;;;;;;;;;2065073;28;19972;-81
2023/10/09 01:53:01;;;;;;;;;;;;;;;;;;2064973;28;19906;-80
2023/10/09 01:54:36;;;;;;;;;;;;;;;;;;2071532;28;19941;-81
2023/10/09 01:55:55;;;;;;;;;;;;;;;;;;2064460;28;19906;-81
2023/10/09 01:57:15;;;;;;;;;;;;;;;;;;2070348;28;20341;-81
2023/10/09 01:58:34;;;;;;;;;;;;;;;;;;2064417;28;19905;-81
2023/10/09 01:59:59;;;;;;;;;;;;;;;;;;2058828;28;19913;-81
2023/10/09 02:01:18;;;;;;;;;;;;;;;;;;2069816;28;19909;-81
2023/10/09 02:02:38;;;;;;;;;;;;;;;;;;2066734;28;20570;-81
2023/10/09 02:04:03;;;;;;;;;;;;;;;;;;2072144;28;19906;-81
2023/10/09 02:05:25;;;;;;;;;;;;;;;;;;2066561;28;19906;-81
2023/10/09 02:06:44;;;;;;;;;;;;;;;;;;2072360;28;19913;-81
2023/10/09 02:08:04;;;;;;;;;;;;;;;;;;2065650;28;19906;-81
2023/10/09 02:09:26;;;;;;;;;;;;;;;;;;2064699;28;19941;-80
2023/10/09 02:10:47;;;;;;;;;;;;;;;;;;2064228;28;19910;-81
2023/10/09 02:12:06;;;;;;;;;;;;;;;;;;2063385;28;19906;-81
2023/10/09 02:13:29;;;;;;;;;;;;;;;;;;2067418;28;19905;-81
2023/10/09 02:14:48;;;;;;;;;;;;;;;;;;2063196;28;19913;-81
2023/10/09 02:16:14;;;;;;;;;;;;;;;;;;2057448;28;19905;-81
2023/10/09 02:17:34;;;;;;;;;;;;;;;;;;2061908;28;20016;-81
2023/10/09 02:18:56;;;;;;;;;;;;;;;;;;2062118;28;20001;-81
2023/10/09 02:20:17;;;;;;;;;;;;;;;;;;2066824;28;19921;-81
2023/10/09 02:21:42;;;;;;;;;;;;;;;;;;2064824;28;19905;-82
2023/10/09 02:23:01;;;;;;;;;;;;;;;;;;2069282;28;19925;-81
2023/10/09 02:26:09;;;;;;;;;;;;;;;;;;2065502;28;20158;-81
2023/10/09 02:27:44;;;;;;;;;;;;;;;;;;2064003;28;20278;-81
2023/10/09 02:30:34;;;;;;;;;;;;;;;;;;2065907;28;19989;-81
2023/10/09 02:32:00;;;;;;;;;;;;;;;;;;2065460;28;19906;-81
2023/10/09 02:33:27;;;;;;;;;;;;;;;;;;2062878;28;20366;-81
2023/10/09 02:34:46;;;;;;;;;;;;;;;;;;2059129;28;19906;-81
2023/10/09 02:36:05;;;;;;;;;;;;;;;;;;2064202;28;19914;-81
2023/10/09 02:37:25;;;;;;;;;;;;;;;;;;2074498;28;19939;-81
2023/10/09 02:38:44;;;;;;;;;;;;;;;;;;2063693;28;20303;-81
2023/10/09 02:40:08;;;;;;;;;;;;;;;;;;2058807;28;19905;-80
2023/10/09 02:41:34;;;;;;;;;;;;;;;;;;2060424;28;19913;-81
2023/10/09 02:42:53;;;;;;;;;;;;;;;;;;2066313;28;19909;-80
2023/10/09 02:44:12;;;;;;;;;;;;;;;;;;2066290;28;19918;-80
2023/10/09 02:45:35;;;;;;;;;;;;;;;;;;2064733;28;19914;-80
2023/10/09 02:46:57;;;;;;;;;;;;;;;;;;2063809;28;19905;-81
2023/10/09 02:48:19;;;;;;;;;;;;;;;;;;2071557;28;20325;-80
2023/10/09 02:49:39;;;;;;;;;;;;;;;;;;2064699;28;19913;-81
2023/10/09 02:50:58;;;;;;;;;;;;;;;;;;2060685;28;19910;-80
2023/10/09 02:52:25;;;;;;;;;;;;;;;;;;2065431;28;19909;-81
2023/10/09 02:53:43;;;;;;;;;;;;;;;;;;2067478;28;19909;-81
2023/10/09 02:55:08;;;;;;;;;;;;;;;;;;2059965;28;20035;-81
2023/10/09 02:56:38;;;;;;;;;;;;;;;;;;2062992;28;19913;-81
2023/10/09 02:58:06;;;;;;;;;;;;;;;;;;2067872;28;19905;-81
2023/10/09 02:59:25;;;;;;;;;;;;;;;;;;2069401;28;19917;-80
2023/10/09 03:00:44;;;;;;;;;;;;;;;;;;2065962;28;19906;-80
2023/10/09 03:02:03;;;;;;;;;;;;;;;;;;2067526;28;20609;-80
2023/10/09 03:03:21;;;;;;;;;;;;;;;;;;2065408;28;19914;-80
2023/10/09 03:04:41;;;;;;;;;;;;;;;;;;2069503;28;19910;-80
2023/10/09 03:06:01;;;;;;;;;;;;;;;;;;2068818;28;19906;-80
2023/10/09 03:07:23;;;;;;;;;;;;;;;;;;2069382;28;19905;-80
2023/10/09 03:08:41;;;;;;;;;;;;;;;;;;2066064;28;19906;-81
2023/10/09 03:10:00;;;;;;;;;;;;;;;;;;2062158;28;20063;-81
2023/10/09 03:11:19;;;;;;;;;;;;;;;;;;2068750;28;19910;-80
2023/10/09 03:12:39;;;;;;;;;;;;;;;;;;2066943;28;19914;-81
2023/10/09 03:13:58;;;;;;;;;;;;;;;;;;2066740;28;19948;-80
2023/10/09 03:15:18;;;;;;;;;;;;;;;;;;2076464;28;20275;-81
2023/10/09 03:16:38;;;;;;;;;;;;;;;;;;2070398;28;19909;-80
2023/10/09 03:17:58;;;;;;;;;;;;;;;;;;2066599;28;19906;-81
2023/10/09 03:19:17;;;;;;;;;;;;;;;;;;2065117;28;19917;-81
2023/10/09 03:20:36;;;;;;;;;;;;;;;;;;2076162;28;19917;-81
2023/10/09 03:21:57;;;;;;;;;;;;;;;;;;2076789;28;19905;-80
2023/10/09 03:23:16;;;;;;;;;;;;;;;;;;2073446;28;20231;-80
2023/10/09 03:24:35;;;;;;;;;;;;;;;;;;2072942;28;19909;-80
2023/10/09 03:25:53;;;;;;;;;;;;;;;;;;2073110;28;19905;-80
2023/10/09 03:27:14;;;;;;;;;;;;;;;;;;2071698;28;20331;-81
2023/10/09 03:28:33;;;;;;;;;;;;;;;;;;2072011;28;19913;-81
2023/10/09 03:29:53;;;;;;;;;;;;;;;;;;2072750;28;19918;-81
2023/10/09 03:31:12;;;;;;;;;;;;;;;;;;2071312;28;19913;-81
2023/10/09 03:32:30;;;;;;;;;;;;;;;;;;2069401;28;19905;-80
2023/10/09 03:33:49;;;;;;;;;;;;;;;;;;2073164;28;20363;-81
2023/10/09 03:35:10;;;;;;;;;;;;;;;;;;2065327;28;20012;-81
2023/10/09 03:36:30;;;;;;;;;;;;;;;;;;2065445;28;19989;-81
2023/10/09 03:37:49;;;;;;;;;;;;;;;;;;2065230;28;19913;-81
2023/10/09 03:39:24;;;;;;;;;;;;;;;;;;2065664;28;20219;-81
2023/10/09 03:40:43;;;;;;;;;;;;;;;;;;2069632;28;20387;-81
2023/10/09 03:42:05;;;;;;;;;;;;;;;;;;2070410;28;19949;-81
2023/10/09 03:43:24;;;;;;;;;;;;;;;;;;2069693;28;19917;-80
2023/10/09 03:44:49;;;;;;;;;;;;;;;;;;2069673;28;19905;-81
2023/10/09 03:46:20;;;;;;;;;;;;;;;;;;2072873;28;19906;-79
2023/10/09 03:47:43;;;;;;;;;;;;;;;;;;2071134;28;19913;-79
2023/10/09 03:49:02;;;;;;;;;;;;;;;;;;2078749;28;19905;-79
2023/10/09 03:50:26;;;;;;;;;;;;;;;;;;2072395;28;19952;-79
2023/10/09 03:51:46;;;;;;;;;;;;;;;;;;2078353;28;19909;-80
2023/10/09 03:53:11;;;;;;;;;;;;;;;;;;2072681;28;19913;-79
2023/10/09 03:54:30;;;;;;;;;;;;;;;;;;2072863;28;19910;-79
2023/10/09 03:55:52;;;;;;;;;;;;;;;;;;2071510;28;20354;-79
2023/10/09 03:57:13;;;;;;;;;;;;;;;;;;2073679;28;19956;-79
2023/10/09 03:58:34;;;;;;;;;;;;;;;;;;2072561;28;19905;-79
2023/10/09 03:59:55;;;;;;;;;;;;;;;;;;2073457;28;19909;-79
2023/10/09 04:01:27;;;;;;;;;;;;;;;;;;2071443;28;20553;-79
2023/10/09 04:02:47;;;;;;;;;;;;;;;;;;2072968;28;20382;-79
2023/10/09 04:04:10;;;;;;;;;;;;;;;;;;2068611;28;20341;-79
2023/10/09 04:05:29;;;;;;;;;;;;;;;;;;2069443;28;19996;-79
2023/10/09 04:06:47;;;;;;;;;;;;;;;;;;2077267;28;19953;-79
2023/10/09 04:08:13;;;;;;;;;;;;;;;;;;2070865;28;19913;-79
2023/10/09 04:09:39;;;;;;;;;;;;;;;;;;2072580;28;19906;-79
2023/10/09 04:11:02;;;;;;;;;;;;;;;;;;2071913;28;19961;-79
2023/10/09 04:12:24;;;;;;;;;;;;;;;;;;2072496;28;19910;-80
2023/10/09 04:13:45;;;;;;;;;;;;;;;;;;2068073;28;19909;-79
2023/10/09 04:15:06;;;;;;;;;;;;;;;;;;2069616;28;20366;-79
2023/10/09 04:17:52;;;;;;;;;;;;;;;;;;2073062;28;20314;-79
2023/10/09 04:19:13;;;;;;;;;;;;;;;;;;2071728;28;19905;-79
2023/10/09 04:21:55;;;;;;;;;;;;;;;;;;2077281;28;19913;-79
2023/10/09 04:23:16;;;;;;;;;;;;;;;;;;2072550;28;19914;-79
2023/10/09 04:24:44;;;;;;;;;;;;;;;;;;2073994;28;19913;-79
2023/10/09 04:26:14;;;;;;;;;;;;;;;;;;2080097;28;19913;-79
2023/10/09 04:27:36;;;;;;;;;;;;;;;;;;2079079;28;20265;-79
2023/10/09 04:28:55;;;;;;;;;;;;;;;;;;2080605;28;19909;-79
2023/10/09 04:30:15;;;;;;;;;;;;;;;;;;2072057;28;19948;-79
2023/10/09 04:31:37;;;;;;;;;;;;;;;;;;2076790;28;19912;-79
2023/10/09 04:32:59;;;;;;;;;;;;;;;;;;2074311;28;19917;-79
2023/10/09 04:34:22;;;;;;;;;;;;;;;;;;2070191;28;20293;-80
2023/10/09 04:35:45;;;;;;;;;;;;;;;;;;2078407;28;19957;-79
2023/10/09 04:38:34;;;;;;;;;;;;;;;;;;2077994;28;19905;-79
2023/10/09 04:40:12;;;;;;;;;;;;;;;;;;2080745;28;19908;-80
2023/10/09 04:43:06;;;;;;;;;;;;;;;;;;2079757;28;20559;-80
2023/10/09 04:44:35;;;;;;;;;;;;;;;;;;2074036;28;19905;-80
2023/10/09 04:46:23;;;;;;;;;;;;;;;;;;2077866;28;20038;-79
2023/10/09 04:48:06;;;;;;;;;;;;;;;;;;2075385;28;20299;-79
2023/10/09 04:49:28;;;;;;;;;;;;;;;;;;2079918;28;20559;-79
2023/10/09 04:51:20;;;;;;;;;;;;;;;;;;2074227;28;19952;-79
2023/10/09 04:53:59;;;;;;;;;;;;;;;;;;2075022;28;19960;-78
2023/10/09 04:55:25;;;;;;;;;;;;;;;;;;2077496;28;19913;-78
2023/10/09 04:56:53;;;;;;;;;;;;;;;;;;2068132;28;19906;-78
2023/10/09 04:58:23;;;;;;;;;;;;;;;;;;2071001;28;19913;-78
2023/10/09 04:59:47;;;;;;;;;;;;;;;;;;2077518;28;19909;-78
2023/10/09 05:01:12;;;;;;;;;;;;;;;;;;2073394;28;19909;-78
2023/10/09 05:02:36;;;;;;;;;;;;;;;;;;2070659;28;20374;-78
2023/10/09 05:03:56;;;;;;;;;;;;;;;;;;2077569;28;19909;-77
2023/10/09 05:05:27;;;;;;;;;;;;;;;;;;2078857;28;19982;-81
2023/10/09 05:06:55;;;;;;;;;;;;;;;;;;2074420;28;19930;-81
2023/10/09 05:08:29;;;;;;;;;;;;;;;;;;2071455;28;19944;-80
2023/10/09 05:12:46;;;;;;;;;;;;;;;;;;2075802;28;19987;-78
2023/10/09 05:13:57;;;;;;;;;;;;;;;;;;2072380;28;19932;-80
2023/10/09 05:15:08;;;;;;;;;;;;;;;;;;2078429;28;19905;-81
2023/10/09 05:16:32;;;;;;;;;;;;;;;;;;2070543;28;19905;-80
2023/10/09 05:18:09;;;;;;;;;;;;;;;;;;2078515;28;19913;-79
2023/10/09 05:19:41;;;;;;;;;;;;;;;;;;2073807;28;20004;-78
2023/10/09 05:21:35;;;;;;;;;;;;;;;;;;2076550;28;19921;-76
2023/10/09 05:22:39;;;;;;;;;;;;;;;;;;2078705;28;20298;-78
2023/10/09 05:27:24;;;;;;;;;;;;;;;;;;2078199;28;19909;-77
2023/10/09 05:28:52;;;;;;;;;;;;;;;;;;2080583;28;19913;-78
2023/10/09 05:30:26;;;;;;;;;;;;;;;;;;2061635;28;19909;-80
2023/10/09 05:31:55;;;;;;;;;;;;;;;;;;2070864;28;19913;-80
2023/10/09 05:33:33;;;;;;;;;;;;;;;;;;2074535;28;19905;-81
2023/10/09 05:37:46;;;;;;;;;;;;;;;;;;2080693;28;19996;-79
2023/10/09 05:39:40;;;;;;;;;;;;;;;;;;2076062;28;20030;-80
2023/10/09 05:40:53;;;;;;;;;;;;;;;;;;2079586;28;20283;-80
2023/10/09 05:42:17;;;;;;;;;;;;;;;;;;2080817;28;19905;-80
2023/10/09 05:46:37;;;;;;;;;;;;;;;;;;2078997;28;20017;-80
2023/10/09 05:48:05;;;;;;;;;;;;;;;;;;2077294;28;19905;-79
2023/10/09 05:49:24;;;;;;;;;;;;;;;;;;2071859;28;19961;-79
2023/10/09 05:53:04;;;;;;;;;;;;;;;;;;2078825;28;20358;-80
2023/10/09 05:54:23;;;;;;;;;;;;;;;;;;2077801;28;20280;-81
2023/10/09 06:03:16;;;;;;;;;;;;;;;;;;2076944;28;19913;-80
2023/10/09 06:04:04;;;;;;;;;;;;;;;;;;2074132;28;19976;-79
2023/10/09 06:05:51;;;;;;;;;;;;;;;;;;2070362;28;20436;-79
2023/10/09 06:07:11;;;;;;;;;;;;;;;;;;2077039;28;20307;-80
2023/10/09 06:10:17;;;;;;;;;;;;;;;;;;2077635;28;20338;-80
2023/10/09 06:13:03;;;;;;;;;;;;;;;;;;2077039;28;19932;-80
2023/10/09 06:14:45;;;;;;;;;;;;;;;;;;2071761;28;19913;-80
2023/10/09 06:16:19;;;;;;;;;;;;;;;;;;2071935;28;20015;-81
2023/10/09 06:17:50;;;;;;;;;;;;;;;;;;2083208;28;20122;-80
2023/10/09 06:19:27;;;;;;;;;;;;;;;;;;2074183;28;21385;-80
2023/10/09 06:25:32;;;;;;;;;;;;;;;;;;2080930;28;21081;-81
2023/10/09 06:28:32;;;;;;;;;;;;;;;;;;2080011;28;19909;-81
2023/10/09 06:29:51;;;;;;;;;;;;;;;;;;2080462;28;20330;-81
2023/10/09 06:31:56;;;;;;;;;;;;;;;;;;2074111;28;19905;-82
2023/10/09 06:33:19;;;;;;;;;;;;;;;;;;2080945;28;19999;-80
2023/10/09 06:34:44;;;;;;;;;;;;;;;;;;2075921;28;19991;-80
2023/10/09 06:36:08;;;;;;;;;;;;;;;;;;2074945;28;20322;-80
2023/10/09 06:39:50;;;;;;;;;;;;;;;;;;2080814;28;19921;-80
2023/10/09 06:42:33;;;;;;;;;;;;;;;;;;2067982;28;19909;-80
2023/10/09 06:43:53;;;;;;;;;;;;;;;;;;2077480;28;20121;-80
2023/10/09 06:45:16;;;;;;;;;;;;;;;;;;2073298;28;20004;-81
2023/10/09 06:46:43;;;;;;;;;;;;;;;;;;2069058;28;20004;-80
2023/10/09 06:48:09;;;;;;;;;;;;;;;;;;2072495;28;19914;-80
2023/10/09 06:49:33;;;;;;;;;;;;;;;;;;2079363;28;19972;-80
2023/10/09 06:51:07;;;;;;;;;;;;;;;;;;2075801;28;19909;-80
2023/10/09 06:52:57;;;;;;;;;;;;;;;;;;2081481;28;19905;-81
2023/10/09 06:54:09;;;;;;;;;;;;;;;;;;2081694;28;19913;-81
2023/10/09 06:55:37;;;;;;;;;;;;;;;;;;2072673;28;19913;-80
2023/10/09 06:58:22;;;;;;;;;;;;;;;;;;2081852;28;19944;-80
2023/10/09 07:00:51;;;;;;;;;;;;;;;;;;2074725;28;20312;-81
2023/10/09 07:03:11;;;;;;;;;;;;;;;;;;2079607;28;19960;-80
2023/10/09 07:04:54;;;;;;;;;;;;;;;;;;2080193;28;20270;-80
2023/10/09 07:06:52;;;;;;;;;;;;;;;;;;2082898;28;20139;-80
2023/10/09 07:07:54;;;;;;;;;;;;;;;;;;2081698;28;19905;-80
2023/10/09 07:10:39;;;;;;;;;;;;;;;;;;2081954;28;20671;-81
2023/10/09 07:11:59;;;;;;;;;;;;;;;;;;2082054;28;19913;-81
2023/10/09 07:13:18;;;;;;;;;;;;;;;;;;2075423;28;19909;-80
2023/10/09 07:18:54;;;;;;;;;;;;;;;;;;2080329;28;20222;-80
2023/10/09 07:20:13;;;;;;;;;;;;;;;;;;2072672;28;19917;-81
2023/10/09 07:21:35;;;;;;;;;;;;;;;;;;2072963;28;19957;-81
2023/10/09 07:22:56;;;;;;;;;;;;;;;;;;2080397;28;20059;-81
2023/10/09 07:24:17;;;;;;;;;;;;;;;;;;2083814;28;20317;-81
2023/10/09 07:25:42;;;;;;;;;;;;;;;;;;2073931;28;20015;-82
2023/10/09 07:27:06;;;;;;;;;;;;;;;;;;2079099;28;19913;-79
2023/10/09 07:28:42;;;;;;;;;;;;;;;;;;2076896;28;20381;-80
2023/10/09 07:30:03;;;;;;;;;;;;;;;;;;2082672;28;19905;-80
2023/10/09 07:31:26;;;;;;;;;;;;;;;;;;2082806;28;19905;-80
2023/10/09 07:32:47;;;;;;;;;;;;;;;;;;2080175;28;19905;-80
2023/10/09 07:34:30;;;;;;;;;;;;;;;;;;2076788;28;19905;-80
2023/10/09 07:35:57;;;;;;;;;;;;;;;;;;2081237;28;19905;-79
2023/10/09 07:37:19;;;;;;;;;;;;;;;;;;2074103;28;20338;-79
2023/10/09 07:38:37;;;;;;;;;;;;;;;;;;2071550;28;19906;-80
2023/10/09 07:40:06;;;;;;;;;;;;;;;;;;2073116;28;19905;-80
2023/10/09 07:42:52;;;;;;;;;;;;;;;;;;2079733;28;19913;-79
2023/10/09 07:44:34;;;;;;;;;;;;;;;;;;2062457;28;20065;-81
2023/10/09 07:47:22;;;;;;;;;;;;;;;;;;2079894;28;19914;-81
2023/10/09 07:48:53;;;;;;;;;;;;;;;;;;2076395;28;20826;-80
2023/10/09 07:50:12;;;;;;;;;;;;;;;;;;2081282;28;19908;-79
2023/10/09 07:51:34;;;;;;;;;;;;;;;;;;2084173;28;20392;-90
2023/10/09 07:53:14;;;;;;;;;;;;;;;;;;2074311;28;19925;-78
2023/10/09 07:54:36;;;;;;;;;;;;;;;;;;2079395;28;19913;-80
2023/10/09 07:55:55;;;;;;;;;;;;;;;;;;2077975;28;19905;-82
2023/10/09 07:57:17;;;;;;;;;;;;;;;;;;2070932;28;20309;-80
2023/10/09 07:58:45;;;;;;;;;;;;;;;;;;2069243;28;19905;-79
2023/10/09 08:00:36;;;;;;;;;;;;;;;;;;2068231;28;20376;-81
2023/10/09 08:01:52;;;;;;;;;;;;;;;;;;2069583;28;19913;-78
2023/10/09 08:03:23;;;;;;;;;;;;;;;;;;2076091;28;20019;-80
2023/10/09 08:04:48;;;;;;;;;;;;;;;;;;2074409;28;19905;-81
2023/10/09 08:06:37;;;;;;;;;;;;;;;;;;2080367;28;19909;-81
2023/10/09 08:08:04;;;;;;;;;;;;;;;;;;2080841;28;19909;-81
2023/10/09 08:09:45;;;;;;;;;;;;;;;;;;2075183;28;19905;-82
2023/10/09 08:14:41;;;;;;;;;;;;;;;;;;2080052;28;19917;-79
2023/10/09 08:15:53;;;;;;;;;;;;;;;;;;2080649;28;19905;-79
2023/10/09 08:17:21;;;;;;;;;;;;;;;;;;2079526;28;19953;-80
2023/10/09 08:18:44;;;;;;;;;;;;;;;;;;2080748;28;19915;-79
2023/10/09 08:20:12;;;;;;;;;;;;;;;;;;2072549;28;19957;-79
2023/10/09 08:21:58;;;;;;;;;;;;;;;;;;2075029;28;19914;-79
2023/10/09 08:23:33;;;;;;;;;;;;;;;;;;2080445;28;20290;-81
2023/10/09 08:24:58;;;;;;;;;;;;;;;;;;2073889;28;19905;-78
2023/10/09 08:26:29;;;;;;;;;;;;;;;;;;2073144;28;19909;-81
2023/10/09 08:27:54;;;;;;;;;;;;;;;;;;2071218;28;19905;-80
2023/10/09 08:29:17;;;;;;;;;;;;;;;;;;2071254;28;19909;-79
2023/10/09 08:32:38;;;;;;;;;;;;;;;;;;2080465;28;19905;-79
2023/10/09 08:34:01;;;;;;;;;;;;;;;;;;2080723;28;19905;-81
2023/10/09 08:37:01;;;;;;;;;;;;;;;;;;2079888;28;20254;-80
2023/10/09 08:38:23;;;;;;;;;;;;;;;;;;2080043;28;20278;-80
2023/10/09 08:39:43;;;;;;;;;;;;;;;;;;2080631;28;20355;-81
2023/10/09 08:41:05;;;;;;;;;;;;;;;;;;2072978;28;19908;-81
2023/10/09 08:42:25;;;;;;;;;;;;;;;;;;2070927;28;20379;-80
2023/10/09 08:43:47;;;;;;;;;;;;;;;;;;2072835;28;19909;-80
2023/10/09 08:45:05;;;;;;;;;;;;;;;;;;2068749;28;20337;-79
2023/10/09 08:46:26;;;;;;;;;;;;;;;;;;2077623;28;19905;-81
2023/10/09 08:47:49;;;;;;;;;;;;;;;;;;2074151;28;19909;-79
2023/10/09 08:49:09;;;;;;;;;;;;;;;;;;2074373;28;19913;-80
2023/10/09 08:50:28;;;;;;;;;;;;;;;;;;2076188;28;19909;-79
2023/10/09 08:51:48;;;;;;;;;;;;;;;;;;2073337;28;19906;-79
2023/10/09 08:53:07;;;;;;;;;;;;;;;;;;2078573;28;20032;-82
2023/10/09 08:54:25;;;;;;;;;;;;;;;;;;2073062;28;19913;-80
2023/10/09 08:55:46;;;;;;;;;;;;;;;;;;2071483;28;19909;-80
2023/10/09 08:57:09;;;;;;;;;;;;;;;;;;2069586;28;19945;-79
2023/10/09 08:58:36;;;;;;;;;;;;;;;;;;2072315;28;19905;-80
2023/10/09 08:59:56;;;;;;;;;;;;;;;;;;2077888;28;19909;-80
2023/10/09 09:01:17;;;;;;;;;;;;;;;;;;2081468;28;19913;-81
2023/10/09 09:02:36;;;;;;;;;;;;;;;;;;2080325;28;19908;-78
2023/10/09 09:03:55;;;;;;;;;;;;;;;;;;2068968;28;19913;-80
2023/10/09 09:05:16;;;;;;;;;;;;;;;;;;2076173;28;20548;-78
2023/10/09 09:06:35;;;;;;;;;;;;;;;;;;2080153;28;19905;-79
2023/10/09 09:07:56;;;;;;;;;;;;;;;;;;2078008;28;20352;-82
2023/10/09 09:09:15;;;;;;;;;;;;;;;;;;2080829;28;19905;-81
2023/10/09 09:10:39;;;;;;;;;;;;;;;;;;2079889;28;19909;-82
2023/10/09 09:11:59;;;;;;;;;;;;;;;;;;2074419;28;19906;-81
2023/10/09 09:13:18;;;;;;;;;;;;;;;;;;2072461;28;20422;-81
2023/10/09 09:14:38;;;;;;;;;;;;;;;;;;2079634;28;19936;-79
2023/10/09 09:15:57;;;;;;;;;;;;;;;;;;2073727;28;19905;-79
2023/10/09 09:17:15;;;;;;;;;;;;;;;;;;2079871;28;19905;-79
2023/10/09 09:18:45;;;;;;;;;;;;;;;;;;2074029;28;19952;-81
2023/10/09 09:20:03;;;;;;;;;;;;;;;;;;2077569;28;19917;-77
2023/10/09 09:21:22;;;;;;;;;;;;;;;;;;2073540;28;20029;-77
2023/10/09 09:22:44;;;;;;;;;;;;;;;;;;2078552;28;20313;-78
2023/10/09 09:24:15;;;;;;;;;;;;;;;;;;2074717;28;19913;-81
2023/10/09 09:25:38;;;;;;;;;;;;;;;;;;2079526;28;19913;-80
2023/10/09 09:26:59;;;;;;;;;;;;;;;;;;2074043;28;19905;-81
2023/10/09 09:28:21;;;;;;;;;;;;;;;;;;2073813;28;19904;-80
2023/10/09 09:29:40;;;;;;;;;;;;;;;;;;2079367;28;20008;-80
2023/10/09 09:31:02;;;;;;;;;;;;;;;;;;2074868;28;20311;-80
2023/10/09 09:32:21;;;;;;;;;;;;;;;;;;2073792;28;19983;-79
2023/10/09 09:33:40;;;;;;;;;;;;;;;;;;2078083;28;19905;-79
2023/10/09 09:35:01;;;;;;;;;;;;;;;;;;2082491;28;20421;-79
2023/10/09 09:36:20;;;;;;;;;;;;;;;;;;2079636;28;19916;-79
2023/10/09 09:37:51;;;;;;;;;;;;;;;;;;2076011;28;19909;-78
2023/10/09 09:39:19;;;;;;;;;;;;;;;;;;2078968;28;19913;-78
2023/10/09 09:40:41;;;;;;;;;;;;;;;;;;2080786;28;19917;-79
2023/10/09 09:42:04;;;;;;;;;;;;;;;;;;2067126;28;19975;-79
2023/10/09 09:43:25;;;;;;;;;;;;;;;;;;2069981;28;19914;-79
2023/10/09 09:44:44;;;;;;;;;;;;;;;;;;2077972;28;19913;-79
2023/10/09 09:46:07;;;;;;;;;;;;;;;;;;2080287;28;19933;-79
2023/10/09 09:47:30;;;;;;;;;;;;;;;;;;2075724;28;19905;-78
2023/10/09 09:48:50;;;;;;;;;;;;;;;;;;2075266;28;19913;-79
2023/10/09 09:50:12;;;;;;;;;;;;;;;;;;2081431;28;20272;-80
2023/10/09 09:51:31;;;;;;;;;;;;;;;;;;2075712;28;20000;-79
2023/10/09 09:52:55;;;;;;;;;;;;;;;;;;2071222;28;19905;-80
2023/10/09 09:54:17;;;;;;;;;;;;;;;;;;2072561;28;19909;-79
2023/10/09 09:55:41;;;;;;;;;;;;;;;;;;2068753;28;19905;-79
2023/10/09 09:57:00;;;;;;;;;;;;;;;;;;2078747;28;19909;-79
2023/10/09 09:58:21;;;;;;;;;;;;;;;;;;2089696;28;19917;-78
2023/10/09 09:59:58;;;;;;;;;;;;;;;;;;2088874;28;19905;-78
2023/10/09 10:01:22;;;;;;;;;;;;;;;;;;2080106;28;19905;-78
2023/10/09 10:02:41;;;;;;;;;;;;;;;;;;2088091;28;19897;-79
2023/10/09 10:04:00;;;;;;;;;;;;;;;;;;2087761;28;19908;-79
2023/10/09 10:05:19;;;;;;;;;;;;;;;;;;2081479;28;19905;-78
2023/10/09 10:06:41;;;;;;;;;;;;;;;;;;2078580;28;19913;-77
2023/10/09 10:08:00;;;;;;;;;;;;;;;;;;2071569;28;19917;-78
2023/10/09 10:09:20;;;;;;;;;;;;;;;;;;2072190;28;19924;-79
2023/10/09 10:10:47;;;;;;;;;;;;;;;;;;2078277;28;19913;-79
2023/10/09 10:12:14;;;;;;;;;;;;;;;;;;2080867;28;19917;-79
2023/10/09 10:13:34;;;;;;;;;;;;;;;;;;2074290;28;19921;-78
2023/10/09 10:14:57;;;;;;;;;;;;;;;;;;2077479;28;20302;-79
2023/10/09 10:17:38;;;;;;;;;;;;;;;;;;2077256;28;19905;-79
2023/10/09 10:19:06;;;;;;;;;;;;;;;;;;2076915;28;19905;-79
2023/10/09 10:20:40;;;;;;;;;;;;;;;;;;2079225;28;19960;-78
2023/10/09 10:22:01;;;;;;;;;;;;;;;;;;2079856;28;19909;-79
2023/10/09 10:23:25;;;;;;;;;;;;;;;;;;2072705;28;19909;-79
2023/10/09 10:24:54;;;;;;;;;;;;;;;;;;2079298;28;19904;-79
2023/10/09 10:26:13;;;;;;;;;;;;;;;;;;2073200;28;20378;-79
2023/10/09 10:27:45;;;;;;;;;;;;;;;;;;2076662;28;20362;-80
2023/10/09 10:29:04;;;;;;;;;;;;;;;;;;2073229;28;19946;-79
2023/10/09 10:30:25;;;;;;;;;;;;;;;;;;2078219;28;19905;-78
2023/10/09 10:31:44;;;;;;;;;;;;;;;;;;2078135;28;19905;-79
2023/10/09 10:33:09;;;;;;;;;;;;;;;;;;2078303;28;19948;-78
2023/10/09 10:34:30;;;;;;;;;;;;;;;;;;2079731;28;19909;-78
2023/10/09 10:35:53;;;;;;;;;;;;;;;;;;2080194;28;19913;-78
2023/10/09 10:37:13;;;;;;;;;;;;;;;;;;2080677;28;19913;-79
2023/10/09 10:38:53;;;;;;;;;;;;;;;;;;2080562;28;20029;-78
2023/10/09 10:40:36;;;;;;;;;;;;;;;;;;2080247;28;20278;-77